Time;durP1;ratioP1;P1;durP2;ratioP2;P2;SDS_P1;SDS_P2;PMS_P1;PMS_P2;Temp;Humidity;BMP_temperature;BMP_pressure;BME280_temperature;BME280_humidity;BME280_pressure;Samples;Min_cycle;Max_cycle;Signal;HPM_P1;HPM_P2
2024/02/03 00:00:07;;;;;;;15.30;10.37;;;;;;;;;;5057861;28;20208;-81
2024/02/03 00:02:33;;;;;;;15.18;10.40;;;;;;;;;;5058160;28;20455;-80
2024/02/03 00:04:59;;;;;;;13.80;10.32;;;;;;;;;;5075932;28;20254;-81
2024/02/03 00:07:25;;;;;;;12.13;8.85;;;;;;;;;;5075646;28;20169;-81
2024/02/03 00:09:51;;;;;;;14.23;10.05;;;;;;;;;;5058604;28;20171;-81
2024/02/03 00:12:28;;;;;;;15.23;9.83;;;;;;;;;;5057656;28;20563;-80
2024/02/03 00:14:54;;;;;;;16.75;11.48;;;;;;;;;;5075292;28;20502;-81
2024/02/03 00:17:20;;;;;;;16.20;12.30;;;;;;;;;;5075776;28;20168;-81
2024/02/03 00:19:46;;;;;;;14.35;10.23;;;;;;;;;;5057562;28;20279;-81
2024/02/03 00:22:13;;;;;;;17.92;10.88;;;;;;;;;;5076518;28;20610;-81
2024/02/03 00:24:39;;;;;;;14.15;10.27;;;;;;;;;;5075268;28;20190;-81
2024/02/03 00:27:05;;;;;;;16.88;11.00;;;;;;;;;;5057489;28;20675;-81
2024/02/03 00:29:31;;;;;;;18.45;10.63;;;;;;;;;;5057471;28;20183;-81
2024/02/03 00:31:57;;;;;;;14.10;10.60;;;;;;;;;;5075832;28;20169;-81
2024/02/03 00:34:23;;;;;;;17.42;11.60;;;;;;;;;;5074207;28;20651;-82
2024/02/03 00:36:49;;;;;;;16.90;10.68;;;;;;;;;;5075192;28;20661;-81
2024/02/03 00:39:16;;;;;;;16.10;10.97;;;;;;;;;;5057344;28;20351;-82
2024/02/03 00:41:42;;;;;;;13.88;10.95;;;;;;;;;;5057962;28;20403;-81
2024/02/03 00:44:09;;;;;;;15.05;10.50;;;;;;;;;;5056973;28;20195;-81
2024/02/03 00:46:35;;;;;;;15.30;11.32;;;;;;;;;;5077374;28;20168;-82
2024/02/03 00:49:01;;;;;;;14.40;11.00;;;;;;;;;;5061309;28;20279;-82
2024/02/03 00:51:27;;;;;;;17.27;10.75;;;;;;;;;;5060992;28;20792;-81
2024/02/03 00:53:53;;;;;;;18.20;10.50;;;;;;;;;;5078567;28;20256;-81
2024/02/03 00:56:19;;;;;;;15.30;11.07;;;;;;;;;;5078935;28;20193;-81
2024/02/03 00:58:45;;;;;;;15.75;11.15;;;;;;;;;;5044890;28;20403;-81
2024/02/03 01:01:11;;;;;;;13.30;9.63;;;;;;;;;;5044454;28;20578;-82
2024/02/03 01:03:37;;;;;;;16.45;9.48;;;;;;;;;;5078534;28;20438;-81
2024/02/03 01:06:03;;;;;;;14.27;8.50;;;;;;;;;;5060941;28;20200;-82
2024/02/03 01:08:29;;;;;;;11.40;8.07;;;;;;;;;;5079149;28;20220;-81
2024/02/03 01:10:55;;;;;;;13.93;8.90;;;;;;;;;;5044659;28;20645;-81
2024/02/03 01:13:22;;;;;;;13.75;9.10;;;;;;;;;;5078020;28;20406;-81
2024/02/03 01:15:48;;;;;;;10.73;7.90;;;;;;;;;;5090801;28;20184;-82
2024/02/03 01:18:14;;;;;;;13.32;8.73;;;;;;;;;;5098762;28;20169;-82
2024/02/03 01:20:40;;;;;;;11.30;8.07;;;;;;;;;;5063703;28;20200;-81
2024/02/03 01:23:06;;;;;;;12.00;9.82;;;;;;;;;;5064129;28;20267;-82
2024/02/03 01:25:32;;;;;;;10.75;8.50;;;;;;;;;;5078367;28;20189;-81
2024/02/03 01:27:58;;;;;;;13.35;10.15;;;;;;;;;;5076992;28;20274;-82
2024/02/03 01:30:24;;;;;;;11.30;8.80;;;;;;;;;;5061048;28;20192;-81
2024/02/03 01:32:50;;;;;;;12.00;8.93;;;;;;;;;;5060272;28;20169;-81
2024/02/03 01:35:16;;;;;;;15.75;9.02;;;;;;;;;;5040366;28;20818;-82
2024/02/03 01:37:42;;;;;;;13.60;8.50;;;;;;;;;;5057165;28;20182;-82
2024/02/03 01:40:08;;;;;;;10.73;8.55;;;;;;;;;;5040286;28;20201;-82
2024/02/03 01:42:35;;;;;;;11.07;8.65;;;;;;;;;;5058004;28;20624;-82
2024/02/03 01:45:01;;;;;;;17.60;8.50;;;;;;;;;;5039845;28;20178;-82
2024/02/03 01:47:27;;;;;;;15.98;10.80;;;;;;;;;;5056591;28;20188;-82
2024/02/03 01:49:53;;;;;;;14.52;8.73;;;;;;;;;;5040654;28;20181;-82
2024/02/03 01:52:19;;;;;;;11.95;8.65;;;;;;;;;;5056756;28;20178;-82
2024/02/03 01:54:46;;;;;;;13.18;9.30;;;;;;;;;;5067829;28;20178;-82
2024/02/03 01:57:13;;;;;;;11.20;8.77;;;;;;;;;;5059655;28;20181;-83
2024/02/03 01:59:39;;;;;;;11.88;7.97;;;;;;;;;;5077755;28;20196;-82
2024/02/03 02:02:05;;;;;;;11.10;9.25;;;;;;;;;;5078062;28;20184;-82
2024/02/03 02:04:31;;;;;;;10.40;6.90;;;;;;;;;;5058639;28;20188;-82
2024/02/03 02:06:58;;;;;;;11.60;7.75;;;;;;;;;;5059986;28;20531;-82
2024/02/03 02:09:25;;;;;;;14.25;8.25;;;;;;;;;;5078206;28;20176;-81
2024/02/03 02:11:52;;;;;;;10.63;7.90;;;;;;;;;;5077014;28;20175;-82
2024/02/03 02:14:22;;;;;;;13.57;8.82;;;;;;;;;;5058401;28;20185;-82
2024/02/03 02:16:48;;;;;;;10.07;6.95;;;;;;;;;;5059981;28;20271;-82
2024/02/03 02:19:16;;;;;;;8.63;6.10;;;;;;;;;;5077522;28;20177;-82
2024/02/03 02:21:42;;;;;;;9.98;7.78;;;;;;;;;;5059733;28;20560;-82
2024/02/03 02:24:08;;;;;;;11.10;8.15;;;;;;;;;;5058687;28;20230;-82
2024/02/03 02:26:34;;;;;;;10.05;6.97;;;;;;;;;;5075479;28;20220;-82
2024/02/03 02:29:00;;;;;;;10.50;7.50;;;;;;;;;;5077085;28;20630;-82
2024/02/03 02:31:26;;;;;;;11.30;7.57;;;;;;;;;;5076859;28;20252;-81
2024/02/03 02:33:52;;;;;;;10.48;7.90;;;;;;;;;;5074883;28;20208;-82
2024/02/03 02:36:18;;;;;;;10.02;5.78;;;;;;;;;;5059553;28;20577;-82
2024/02/03 02:38:44;;;;;;;10.70;7.88;;;;;;;;;;5058902;28;20177;-81
2024/02/03 02:41:10;;;;;;;9.20;6.07;;;;;;;;;;5058890;28;20224;-82
2024/02/03 02:43:37;;;;;;;8.40;5.70;;;;;;;;;;5075846;28;20430;-83
2024/02/03 02:46:03;;;;;;;9.00;6.22;;;;;;;;;;5076961;28;20164;-82
2024/02/03 02:48:29;;;;;;;9.48;7.32;;;;;;;;;;5042596;28;20183;-81
2024/02/03 02:50:55;;;;;;;9.33;6.17;;;;;;;;;;5042379;28;20274;-82
2024/02/03 02:53:20;;;;;;;21.85;7.75;;;;;;;;;;5042201;28;20442;-82
2024/02/03 02:55:46;;;;;;;10.27;6.30;;;;;;;;;;5058478;28;20184;-82
2024/02/03 02:58:12;;;;;;;8.40;6.87;;;;;;;;;;5042400;28;20430;-81
2024/02/03 03:00:38;;;;;;;8.37;6.20;;;;;;;;;;5059245;28;20953;-82
2024/02/03 03:03:05;;;;;;;9.70;6.82;;;;;;;;;;5042318;28;20415;-81
2024/02/03 03:05:31;;;;;;;8.30;6.28;;;;;;;;;;5057926;28;20245;-82
2024/02/03 03:07:57;;;;;;;12.35;6.88;;;;;;;;;;5077224;28;20174;-82
2024/02/03 03:10:23;;;;;;;10.35;6.35;;;;;;;;;;5057684;28;20200;-83
2024/02/03 03:12:49;;;;;;;7.60;5.37;;;;;;;;;;5058705;28;20173;-83
2024/02/03 03:15:15;;;;;;;9.13;6.47;;;;;;;;;;5058349;28;20423;-83
2024/02/03 03:17:41;;;;;;;7.43;5.57;;;;;;;;;;5076061;28;20428;-84
2024/02/03 03:20:08;;;;;;;9.05;6.13;;;;;;;;;;5058299;28;20558;-84
2024/02/03 03:22:34;;;;;;;8.00;6.30;;;;;;;;;;5041311;28;20181;-84
2024/02/03 03:25:00;;;;;;;7.93;5.93;;;;;;;;;;5074875;28;20180;-83
2024/02/03 03:27:26;;;;;;;8.27;6.20;;;;;;;;;;5057669;28;20454;-84
2024/02/03 03:29:52;;;;;;;10.07;6.40;;;;;;;;;;5058029;28;20510;-83
2024/02/03 03:32:19;;;;;;;11.15;7.25;;;;;;;;;;5058007;28;20417;-84
2024/02/03 03:34:45;;;;;;;8.85;6.35;;;;;;;;;;5074456;28;20249;-85
2024/02/03 03:37:11;;;;;;;9.73;6.85;;;;;;;;;;5041622;28;20173;-85
2024/02/03 03:39:37;;;;;;;12.38;6.20;;;;;;;;;;5057383;28;20208;-85
2024/02/03 03:42:04;;;;;;;14.63;7.07;;;;;;;;;;5074977;28;20172;-85
2024/02/03 03:44:31;;;;;;;7.10;6.13;;;;;;;;;;5062542;28;20412;-84
2024/02/03 03:46:58;;;;;;;12.13;7.10;;;;;;;;;;5055242;28;20221;-85
2024/02/03 03:49:25;;;;;;;10.93;6.80;;;;;;;;;;5020905;28;20640;-84
2024/02/03 03:51:52;;;;;;;9.40;6.53;;;;;;;;;;5054246;28;20197;-87
2024/02/03 03:54:18;;;;;;;13.25;7.18;;;;;;;;;;5025817;28;20293;-86
2024/02/03 03:56:44;;;;;;;10.47;7.30;;;;;;;;;;5036311;28;20755;-87
2024/02/03 03:59:10;;;;;;;10.02;6.80;;;;;;;;;;5041728;28;20435;-85
2024/02/03 04:01:36;;;;;;;10.95;6.32;;;;;;;;;;5074121;28;20171;-84
2024/02/03 04:04:03;;;;;;;8.10;5.73;;;;;;;;;;5057068;28;20177;-84
2024/02/03 04:06:29;;;;;;;11.07;6.88;;;;;;;;;;5056714;28;20410;-83
2024/02/03 04:08:55;;;;;;;8.13;6.20;;;;;;;;;;5074206;28;20189;-84
2024/02/03 04:11:20;;;;;;;10.40;7.57;;;;;;;;;;5052663;28;20932;-84
2024/02/03 04:13:48;;;;;;;8.57;6.43;;;;;;;;;;5056675;28;20823;-84
2024/02/03 04:16:19;;;;;;;8.93;6.32;;;;;;;;;;5075184;28;20194;-84
2024/02/03 04:18:45;;;;;;;8.13;6.25;;;;;;;;;;5039814;28;20583;-84
2024/02/03 04:21:11;;;;;;;8.50;5.60;;;;;;;;;;5043434;28;20246;-83
2024/02/03 04:23:37;;;;;;;9.57;6.28;;;;;;;;;;5041726;28;20419;-83
2024/02/03 04:26:03;;;;;;;7.00;5.80;;;;;;;;;;5041512;28;20181;-84
2024/02/03 04:28:29;;;;;;;9.93;6.45;;;;;;;;;;5025106;28;20552;-84
2024/02/03 04:30:58;;;;;;;8.67;5.77;;;;;;;;;;5059124;28;20209;-84
2024/02/03 04:33:24;;;;;;;6.38;4.88;;;;;;;;;;5035330;28;20433;-83
2024/02/03 04:35:50;;;;;;;7.80;6.00;;;;;;;;;;5057973;28;20257;-83
2024/02/03 04:38:16;;;;;;;7.40;5.45;;;;;;;;;;5057735;28;20462;-83
2024/02/03 04:40:42;;;;;;;6.73;5.57;;;;;;;;;;5057841;28;20248;-83
2024/02/03 04:43:08;;;;;;;6.77;5.03;;;;;;;;;;5059173;28;20407;-83
2024/02/03 04:45:34;;;;;;;6.22;5.28;;;;;;;;;;5041250;28;20443;-83
2024/02/03 04:48:00;;;;;;;7.43;5.18;;;;;;;;;;5059314;28;20648;-83
2024/02/03 04:50:27;;;;;;;6.43;5.60;;;;;;;;;;5059086;28;20177;-84
2024/02/03 04:52:53;;;;;;;8.60;6.13;;;;;;;;;;5056126;28;20905;-83
2024/02/03 04:55:22;;;;;;;7.47;6.38;;;;;;;;;;5079142;28;20192;-83
2024/02/03 04:57:48;;;;;;;8.90;5.28;;;;;;;;;;5044674;28;20181;-83
2024/02/03 05:00:14;;;;;;;7.30;5.80;;;;;;;;;;5079082;28;20205;-83
2024/02/03 05:02:41;;;;;;;9.18;5.68;;;;;;;;;;5061040;28;20420;-82
2024/02/03 05:05:07;;;;;;;7.25;6.50;;;;;;;;;;5078706;28;20252;-83
2024/02/03 05:07:33;;;;;;;6.53;5.05;;;;;;;;;;5060329;28;20267;-82
2024/02/03 05:09:59;;;;;;;7.25;5.03;;;;;;;;;;5061135;28;20196;-83
2024/02/03 05:12:25;;;;;;;10.47;5.30;;;;;;;;;;5078653;28;20181;-83
2024/02/03 05:14:51;;;;;;;5.73;5.13;;;;;;;;;;5044374;28;20415;-83
2024/02/03 05:17:17;;;;;;;5.30;4.70;;;;;;;;;;5060744;28;20415;-83
2024/02/03 05:19:43;;;;;;;6.28;4.60;;;;;;;;;;5043895;28;20485;-83
2024/02/03 05:22:09;;;;;;;7.72;4.80;;;;;;;;;;5061114;28;20177;-83
2024/02/03 05:24:35;;;;;;;5.38;3.50;;;;;;;;;;5043971;28;20206;-83
2024/02/03 05:27:01;;;;;;;6.40;4.97;;;;;;;;;;5043929;28;20236;-83
2024/02/03 05:29:27;;;;;;;5.35;4.82;;;;;;;;;;5060422;28;20263;-83
2024/02/03 05:31:53;;;;;;;6.80;5.10;;;;;;;;;;5059493;28;20209;-82
2024/02/03 05:34:19;;;;;;;6.70;5.47;;;;;;;;;;5060313;28;20419;-83
2024/02/03 05:36:45;;;;;;;8.53;5.50;;;;;;;;;;5060880;28;20399;-83
2024/02/03 05:39:11;;;;;;;6.33;4.80;;;;;;;;;;5077949;28;20738;-83
2024/02/03 05:41:38;;;;;;;7.40;5.22;;;;;;;;;;5077787;28;20411;-83
2024/02/03 05:44:04;;;;;;;7.18;5.05;;;;;;;;;;5060508;28;20180;-83
2024/02/03 05:46:31;;;;;;;7.10;5.28;;;;;;;;;;5043156;28;20679;-83
2024/02/03 05:48:57;;;;;;;7.67;5.20;;;;;;;;;;5077788;28;20177;-83
2024/02/03 05:51:23;;;;;;;7.37;5.43;;;;;;;;;;5060341;28;20446;-83
2024/02/03 05:53:49;;;;;;;6.53;5.00;;;;;;;;;;5043447;28;20441;-83
2024/02/03 05:56:15;;;;;;;7.90;5.90;;;;;;;;;;5043576;28;20419;-83
2024/02/03 05:58:42;;;;;;;8.53;5.23;;;;;;;;;;5077748;28;20404;-83
2024/02/03 06:01:08;;;;;;;5.53;4.93;;;;;;;;;;5043958;28;20826;-83
2024/02/03 06:03:34;;;;;;;6.70;5.40;;;;;;;;;;5060147;28;20173;-83
2024/02/03 06:06:00;;;;;;;7.38;5.32;;;;;;;;;;5042959;28;20961;-83
2024/02/03 06:08:26;;;;;;;9.63;5.40;;;;;;;;;;5077351;28;20177;-83
2024/02/03 06:10:52;;;;;;;5.97;4.87;;;;;;;;;;5057931;28;20431;-82
2024/02/03 06:13:21;;;;;;;7.83;5.60;;;;;;;;;;5057703;28;20805;-83
2024/02/03 06:15:47;;;;;;;7.03;5.55;;;;;;;;;;5057414;28;20931;-82
2024/02/03 06:18:13;;;;;;;6.65;5.22;;;;;;;;;;5057493;28;20603;-83
2024/02/03 06:20:39;;;;;;;5.87;4.90;;;;;;;;;;5053490;28;20282;-83
2024/02/03 06:23:05;;;;;;;8.13;5.87;;;;;;;;;;5077919;28;20404;-83
2024/02/03 06:25:31;;;;;;;6.93;5.23;;;;;;;;;;5077980;28;20407;-82
2024/02/03 06:27:57;;;;;;;7.20;5.17;;;;;;;;;;5072402;28;20851;-82
2024/02/03 06:30:23;;;;;;;6.10;5.33;;;;;;;;;;5056572;28;20428;-82
2024/02/03 06:32:49;;;;;;;5.32;4.55;;;;;;;;;;5055906;28;20800;-82
2024/02/03 06:35:15;;;;;;;6.20;5.20;;;;;;;;;;5057699;28;20166;-82
2024/02/03 06:37:41;;;;;;;7.07;5.50;;;;;;;;;;5056045;28;20411;-82
2024/02/03 06:40:07;;;;;;;7.78;4.95;;;;;;;;;;5038996;28;20213;-82
2024/02/03 06:42:33;;;;;;;7.28;5.72;;;;;;;;;;5039676;28;20614;-82
2024/02/03 06:44:59;;;;;;;7.47;5.07;;;;;;;;;;5055245;28;20219;-82
2024/02/03 06:47:25;;;;;;;6.43;4.73;;;;;;;;;;5056080;28;20798;-82
2024/02/03 06:49:51;;;;;;;5.78;5.18;;;;;;;;;;5057128;28;20417;-82
2024/02/03 06:52:17;;;;;;;9.60;5.90;;;;;;;;;;5056799;28;20463;-82
2024/02/03 06:54:43;;;;;;;6.37;5.43;;;;;;;;;;5055924;28;20424;-81
2024/02/03 06:57:09;;;;;;;7.33;5.77;;;;;;;;;;5056648;28;20448;-82
2024/02/03 06:59:35;;;;;;;8.50;5.67;;;;;;;;;;5038912;28;20470;-82
2024/02/03 07:02:01;;;;;;;7.87;5.60;;;;;;;;;;5038717;28;20856;-82
2024/02/03 07:04:27;;;;;;;7.40;5.70;;;;;;;;;;5055534;28;20439;-82
2024/02/03 07:06:52;;;;;;;10.17;6.17;;;;;;;;;;5056684;28;20423;-82
2024/02/03 07:09:18;;;;;;;7.57;5.70;;;;;;;;;;5055235;28;20412;-82
2024/02/03 07:11:44;;;;;;;5.83;4.63;;;;;;;;;;5054996;28;20474;-82
2024/02/03 07:14:10;;;;;;;7.03;5.63;;;;;;;;;;5056755;28;20982;-82
2024/02/03 07:16:36;;;;;;;7.40;4.90;;;;;;;;;;5057120;28;20879;-82
2024/02/03 07:19:04;;;;;;;6.30;4.87;;;;;;;;;;5056176;28;20451;-82
2024/02/03 07:21:30;;;;;;;6.82;5.15;;;;;;;;;;5054956;28;20491;-82
2024/02/03 07:23:56;;;;;;;7.90;5.00;;;;;;;;;;5055326;28;20637;-82
2024/02/03 07:26:22;;;;;;;10.00;5.10;;;;;;;;;;5056992;28;20245;-82
2024/02/03 07:28:48;;;;;;;7.73;5.40;;;;;;;;;;5041665;28;20419;-81
2024/02/03 07:31:14;;;;;;;7.90;4.73;;;;;;;;;;5054748;28;20894;-82
2024/02/03 07:33:40;;;;;;;5.88;4.65;;;;;;;;;;5042744;28;20465;-81
2024/02/03 07:36:06;;;;;;;7.50;5.70;;;;;;;;;;5038280;28;20276;-81
2024/02/03 07:38:32;;;;;;;5.47;4.93;;;;;;;;;;5038951;28;20895;-82
2024/02/03 07:40:58;;;;;;;9.23;5.10;;;;;;;;;;5038597;28;20220;-81
2024/02/03 07:43:24;;;;;;;7.40;5.13;;;;;;;;;;5056695;28;20491;-82
2024/02/03 07:45:50;;;;;;;12.83;5.20;;;;;;;;;;5056149;28;20800;-81
2024/02/03 07:48:16;;;;;;;6.30;4.67;;;;;;;;;;5038550;28;20444;-81
2024/02/03 07:50:42;;;;;;;3.90;3.03;;;;;;;;;;5038458;28;20423;-81
2024/02/03 07:53:08;;;;;;;9.02;5.15;;;;;;;;;;5038850;28;20436;-82
2024/02/03 07:55:34;;;;;;;6.60;5.30;;;;;;;;;;5038277;28;20205;-82
2024/02/03 07:58:00;;;;;;;8.02;4.70;;;;;;;;;;5037220;28;20527;-82
2024/02/03 08:00:27;;;;;;;4.27;3.87;;;;;;;;;;5059237;28;20303;-81
2024/02/03 08:02:53;;;;;;;5.05;4.35;;;;;;;;;;5076523;28;20436;-81
2024/02/03 08:05:19;;;;;;;9.17;4.70;;;;;;;;;;5075603;28;20195;-82
2024/02/03 08:07:45;;;;;;;7.10;5.23;;;;;;;;;;5075859;28;20399;-81
2024/02/03 08:10:11;;;;;;;5.80;4.90;;;;;;;;;;5041454;28;20423;-82
2024/02/03 08:12:37;;;;;;;5.50;4.60;;;;;;;;;;5076070;28;20746;-81
2024/02/03 08:15:03;;;;;;;4.60;3.87;;;;;;;;;;5041282;28;20438;-81
2024/02/03 08:17:29;;;;;;;9.20;3.63;;;;;;;;;;5058031;28;20415;-82
2024/02/03 08:19:55;;;;;;;5.97;3.87;;;;;;;;;;5040951;28;20200;-81
2024/02/03 08:22:21;;;;;;;3.83;3.47;;;;;;;;;;5076056;28;20413;-81
2024/02/03 08:24:47;;;;;;;4.73;3.90;;;;;;;;;;5057981;28;20427;-81
2024/02/03 08:27:13;;;;;;;6.23;3.33;;;;;;;;;;5041405;28;20474;-81
2024/02/03 08:29:39;;;;;;;4.43;4.03;;;;;;;;;;5076254;28;20404;-81
2024/02/03 08:32:05;;;;;;;3.63;3.13;;;;;;;;;;5041873;28;20434;-81
2024/02/03 08:34:31;;;;;;;5.85;3.78;;;;;;;;;;5038285;28;20832;-81
2024/02/03 08:36:57;;;;;;;4.75;3.58;;;;;;;;;;5055273;28;20200;-81
2024/02/03 08:39:23;;;;;;;10.23;7.03;;;;;;;;;;5055851;28;20185;-81
2024/02/03 08:41:49;;;;;;;6.43;4.57;;;;;;;;;;5037401;28;20435;-81
2024/02/03 08:44:15;;;;;;;3.83;3.43;;;;;;;;;;5021760;28;20973;-81
2024/02/03 08:46:41;;;;;;;5.10;4.17;;;;;;;;;;5055905;28;20765;-81
2024/02/03 08:49:08;;;;;;;4.88;4.22;;;;;;;;;;5037749;28;20422;-81
2024/02/03 08:51:34;;;;;;;4.80;4.30;;;;;;;;;;5021986;28;20188;-81
2024/02/03 08:54:00;;;;;;;5.35;4.15;;;;;;;;;;5038166;28;20182;-81
2024/02/03 08:56:26;;;;;;;8.10;4.07;;;;;;;;;;5040355;28;20266;-81
2024/02/03 08:58:52;;;;;;;6.80;5.20;;;;;;;;;;5056355;28;20423;-81
2024/02/03 09:01:18;;;;;;;6.30;5.10;;;;;;;;;;5059509;28;20462;-82
2024/02/03 09:03:44;;;;;;;6.87;5.63;;;;;;;;;;5095714;28;20402;-81
2024/02/03 09:06:11;;;;;;;6.10;5.13;;;;;;;;;;5077483;28;20406;-81
2024/02/03 09:08:38;;;;;;;6.45;5.72;;;;;;;;;;5081194;28;20195;-82
2024/02/03 09:11:04;;;;;;;8.13;6.05;;;;;;;;;;5075635;28;20560;-81
2024/02/03 09:13:29;;;;;;;5.95;4.57;;;;;;;;;;5078702;28;20562;-82
2024/02/03 09:15:55;;;;;;;6.47;4.77;;;;;;;;;;5061190;28;20264;-82
2024/02/03 09:18:21;;;;;;;8.57;5.53;;;;;;;;;;5058679;28;20802;-83
2024/02/03 09:20:47;;;;;;;8.37;5.67;;;;;;;;;;5058151;28;20490;-82
2024/02/03 09:23:13;;;;;;;7.70;6.28;;;;;;;;;;5040697;28;20466;-82
2024/02/03 09:25:40;;;;;;;6.60;4.87;;;;;;;;;;5040775;28;20656;-83
2024/02/03 09:28:06;;;;;;;8.50;6.07;;;;;;;;;;5039948;28;20467;-84
2024/02/03 09:30:33;;;;;;;8.18;6.00;;;;;;;;;;5058054;28;20582;-83
2024/02/03 09:32:58;;;;;;;8.13;6.35;;;;;;;;;;5059297;28;20180;-83
2024/02/03 09:35:27;;;;;;;6.57;5.87;;;;;;;;;;5043868;28;20181;-84
2024/02/03 09:37:52;;;;;;;10.77;6.25;;;;;;;;;;5043559;28;20473;-83
2024/02/03 09:40:20;;;;;;;12.27;6.50;;;;;;;;;;5059568;28;20208;-84
2024/02/03 09:42:46;;;;;;;11.07;7.50;;;;;;;;;;5077663;28;20443;-85
2024/02/03 09:45:12;;;;;;;10.00;6.78;;;;;;;;;;5076764;28;20223;-85
2024/02/03 09:47:38;;;;;;;7.50;5.07;;;;;;;;;;5058942;28;20210;-85
2024/02/03 09:50:05;;;;;;;8.50;5.37;;;;;;;;;;5058820;28;20173;-86
2024/02/03 09:52:32;;;;;;;9.38;5.45;;;;;;;;;;5059357;28;20413;-86
2024/02/03 09:54:58;;;;;;;9.82;5.60;;;;;;;;;;5076343;28;20185;-85
2024/02/03 09:57:25;;;;;;;8.73;6.15;;;;;;;;;;5058860;28;20246;-86
2024/02/03 09:59:51;;;;;;;7.10;5.53;;;;;;;;;;5076468;28;20287;-86
2024/02/03 10:02:17;;;;;;;12.10;7.28;;;;;;;;;;5076777;28;20310;-86
2024/02/03 10:04:45;;;;;;;7.47;6.30;;;;;;;;;;5076101;28;20169;-86
2024/02/03 10:07:11;;;;;;;9.85;6.90;;;;;;;;;;5057972;28;20677;-87
2024/02/03 10:09:38;;;;;;;7.05;4.75;;;;;;;;;;5058241;28;20206;-88
2024/02/03 10:12:04;;;;;;;9.07;6.45;;;;;;;;;;5041615;28;20185;-88
2024/02/03 10:14:30;;;;;;;7.78;6.05;;;;;;;;;;5042305;28;20641;-88
2024/02/03 10:16:57;;;;;;;14.20;6.70;;;;;;;;;;5058099;28;20184;-89
2024/02/03 10:19:23;;;;;;;9.05;6.95;;;;;;;;;;5057750;28;20407;-87
2024/02/03 10:21:50;;;;;;;11.00;7.70;;;;;;;;;;5058286;28;20192;-89
2024/02/03 10:24:25;;;;;;;14.50;7.72;;;;;;;;;;5059207;28;20412;-89
2024/02/03 10:27:02;;;;;;;10.75;6.80;;;;;;;;;;5062948;28;20224;-90
2024/02/03 10:29:28;;;;;;;9.95;8.95;;;;;;;;;;5078916;28;20565;-89
2024/02/03 10:31:54;;;;;;;10.07;6.35;;;;;;;;;;5059106;28;20187;-89
2024/02/03 10:34:20;;;;;;;9.30;7.70;;;;;;;;;;5078162;28;20223;-89
2024/02/03 10:36:47;;;;;;;9.57;7.28;;;;;;;;;;5059952;28;20589;-90
2024/02/03 10:39:14;;;;;;;7.63;6.82;;;;;;;;;;5059485;28;20173;-89
2024/02/03 10:41:40;;;;;;;9.02;5.32;;;;;;;;;;5076504;28;20190;-88
2024/02/03 10:44:10;;;;;;;8.45;6.28;;;;;;;;;;5057717;28;20517;-87
2024/02/03 10:46:38;;;;;;;10.90;7.28;;;;;;;;;;5076199;28;20172;-88
2024/02/03 10:49:07;;;;;;;11.65;8.57;;;;;;;;;;5058591;28;20185;-88
2024/02/03 10:51:33;;;;;;;9.80;6.15;;;;;;;;;;5076149;28;20169;-88
2024/02/03 10:54:04;;;;;;;15.05;7.47;;;;;;;;;;5058097;28;20579;-88
2024/02/03 10:56:32;;;;;;;11.63;7.15;;;;;;;;;;5058111;28;20259;-89
2024/02/03 10:58:58;;;;;;;9.15;6.30;;;;;;;;;;5076911;28;20169;-89
2024/02/03 11:01:33;;;;;;;12.65;8.27;;;;;;;;;;5076021;28;20247;-89
2024/02/03 11:04:01;;;;;;;11.63;8.05;;;;;;;;;;5075549;28;20230;-88
2024/02/03 11:06:38;;;;;;;17.20;6.85;;;;;;;;;;5076261;28;20534;-88
2024/02/03 11:09:13;;;;;;;12.68;7.85;;;;;;;;;;5058003;28;20646;-90
2024/02/03 11:11:49;;;;;;;10.38;8.27;;;;;;;;;;5057916;28;20581;-89
2024/02/03 11:14:16;;;;;;;8.88;6.40;;;;;;;;;;5057830;28;20188;-89
2024/02/03 11:16:42;;;;;;;9.77;6.07;;;;;;;;;;5058133;28;20181;-89
2024/02/03 11:19:12;;;;;;;12.65;7.93;;;;;;;;;;5061242;28;20268;-89
2024/02/03 11:21:44;;;;;;;10.82;6.68;;;;;;;;;;5082590;28;20585;-90
2024/02/03 11:24:11;;;;;;;11.85;7.20;;;;;;;;;;5057689;28;20183;-90
2024/02/03 11:26:38;;;;;;;13.27;7.25;;;;;;;;;;5076483;28;20228;-91
2024/02/03 11:29:04;;;;;;;8.40;6.65;;;;;;;;;;5059019;28;20267;-91
2024/02/03 11:31:33;;;;;;;12.23;6.90;;;;;;;;;;5057188;28;20177;-91
2024/02/03 11:33:59;;;;;;;8.05;6.25;;;;;;;;;;5058358;28;20644;-94
2024/02/03 11:36:25;;;;;;;9.80;6.75;;;;;;;;;;5026584;28;20284;-92
2024/02/03 11:38:53;;;;;;;8.60;7.10;;;;;;;;;;5039542;28;20668;-92
2024/02/03 11:41:21;;;;;;;7.32;6.38;;;;;;;;;;5039438;28;20467;-92
2024/02/03 11:43:49;;;;;;;7.55;5.88;;;;;;;;;;5038621;28;20185;-92
2024/02/03 11:46:15;;;;;;;8.52;5.75;;;;;;;;;;5056086;28;20661;-91
2024/02/03 11:48:44;;;;;;;9.70;6.82;;;;;;;;;;5038521;28;20185;-91
2024/02/03 11:51:10;;;;;;;8.30;5.72;;;;;;;;;;5037992;28;20507;-91
2024/02/03 11:53:36;;;;;;;14.63;7.03;;;;;;;;;;5061153;28;20191;-91
2024/02/03 11:56:02;;;;;;;6.97;6.28;;;;;;;;;;5060211;28;20177;-92
2024/02/03 11:58:28;;;;;;;7.65;5.75;;;;;;;;;;5059316;28;20636;-92
2024/02/03 12:01:04;;;;;;;8.43;6.50;;;;;;;;;;5065335;28;20212;-91
2024/02/03 12:03:30;;;;;;;6.68;6.00;;;;;;;;;;5059595;28;20176;-91
2024/02/03 12:05:56;;;;;;;7.50;5.22;;;;;;;;;;5077638;28;20185;-92
2024/02/03 12:08:22;;;;;;;7.75;5.95;;;;;;;;;;5077478;28;20169;-93
2024/02/03 12:10:48;;;;;;;7.28;5.80;;;;;;;;;;5058830;28;20195;-92
2024/02/03 12:13:14;;;;;;;6.50;5.40;;;;;;;;;;5059091;28;20225;-91
2024/02/03 12:15:41;;;;;;;5.65;4.70;;;;;;;;;;5058163;28;20173;-90
2024/02/03 12:18:07;;;;;;;5.32;4.43;;;;;;;;;;5057784;28;20173;-91
2024/02/03 12:20:33;;;;;;;8.43;6.15;;;;;;;;;;5058524;28;20214;-90
2024/02/03 12:22:59;;;;;;;8.10;6.32;;;;;;;;;;5059047;28;20185;-89
2024/02/03 12:25:28;;;;;;;7.32;5.22;;;;;;;;;;5076092;28;20256;-90
2024/02/03 12:27:54;;;;;;;9.10;6.13;;;;;;;;;;5075216;28;20306;-90
2024/02/03 12:30:21;;;;;;;7.63;5.78;;;;;;;;;;5057928;28;20648;-90
2024/02/03 12:32:47;;;;;;;8.05;6.40;;;;;;;;;;5057041;28;20266;-89
2024/02/03 12:35:14;;;;;;;16.42;6.78;;;;;;;;;;5056431;28;20180;-89
2024/02/03 12:37:40;;;;;;;8.52;6.10;;;;;;;;;;5056764;28;20184;-90
2024/02/03 12:40:07;;;;;;;9.57;6.63;;;;;;;;;;5074602;28;20555;-90
2024/02/03 12:42:33;;;;;;;7.63;5.40;;;;;;;;;;5043809;28;20614;-91
2024/02/03 12:45:00;;;;;;;8.52;6.13;;;;;;;;;;5079457;28;20172;-90
2024/02/03 12:47:29;;;;;;;11.00;5.75;;;;;;;;;;5061838;28;20203;-91
2024/02/03 12:49:55;;;;;;;7.60;6.82;;;;;;;;;;5062800;28;20183;-92
2024/02/03 12:52:22;;;;;;;9.65;6.60;;;;;;;;;;5062990;28;20172;-92
2024/02/03 12:54:48;;;;;;;12.27;8.10;;;;;;;;;;5061753;28;20208;-91
2024/02/03 12:57:14;;;;;;;9.68;7.97;;;;;;;;;;5062127;28;20196;-92
2024/02/03 12:59:40;;;;;;;10.85;8.45;;;;;;;;;;5046060;28;20215;-91
2024/02/03 13:02:06;;;;;;;9.50;7.97;;;;;;;;;;5060944;28;20220;-91
2024/02/03 13:04:32;;;;;;;10.50;7.47;;;;;;;;;;5061075;28;20173;-92
2024/02/03 13:06:58;;;;;;;15.15;8.15;;;;;;;;;;5062739;28;20185;-92
2024/02/03 13:09:24;;;;;;;10.47;8.33;;;;;;;;;;5061255;28;20169;-92
2024/02/03 13:11:50;;;;;;;12.48;9.00;;;;;;;;;;5078755;28;20413;-90
2024/02/03 13:14:16;;;;;;;11.83;8.70;;;;;;;;;;5043306;28;20550;-90
2024/02/03 13:16:42;;;;;;;11.73;8.27;;;;;;;;;;5059870;28;20422;-90
2024/02/03 13:19:10;;;;;;;9.88;7.95;;;;;;;;;;5060008;28;20419;-90
2024/02/03 13:21:36;;;;;;;13.95;8.95;;;;;;;;;;5078558;28;20219;-91
2024/02/03 13:24:02;;;;;;;10.93;8.50;;;;;;;;;;5060337;28;20535;-92
2024/02/03 13:26:28;;;;;;;11.10;7.90;;;;;;;;;;5059599;28;20192;-90
2024/02/03 13:28:54;;;;;;;7.95;7.15;;;;;;;;;;5060174;28;20215;-90
2024/02/03 13:31:23;;;;;;;8.18;6.78;;;;;;;;;;5077576;28;20693;-90
2024/02/03 13:33:49;;;;;;;6.55;5.90;;;;;;;;;;5059537;28;20191;-90
2024/02/03 13:36:15;;;;;;;7.53;5.82;;;;;;;;;;5043177;28;20181;-90
2024/02/03 13:38:42;;;;;;;8.90;5.87;;;;;;;;;;5060571;28;20230;-90
2024/02/03 13:41:08;;;;;;;4.93;4.40;;;;;;;;;;5044249;28;20977;-89
2024/02/03 13:43:36;;;;;;;8.88;4.60;;;;;;;;;;5077397;28;20204;-89
2024/02/03 13:46:02;;;;;;;9.35;4.10;;;;;;;;;;5038364;28;20190;-89
2024/02/03 13:48:28;;;;;;;10.60;4.45;;;;;;;;;;5056128;28;20544;-88
2024/02/03 13:50:55;;;;;;;5.43;4.90;;;;;;;;;;5066963;28;20268;-89
2024/02/03 13:53:21;;;;;;;3.83;3.47;;;;;;;;;;5055238;28;20450;-89
2024/02/03 13:55:47;;;;;;;5.93;5.03;;;;;;;;;;5039672;28;20235;-89
2024/02/03 13:58:13;;;;;;;5.15;4.65;;;;;;;;;;5039390;28;20273;-88
2024/02/03 14:00:39;;;;;;;5.83;5.00;;;;;;;;;;5041501;28;20614;-87
2024/02/03 14:03:05;;;;;;;7.82;4.80;;;;;;;;;;5076714;28;20400;-87
2024/02/03 14:05:32;;;;;;;6.07;4.93;;;;;;;;;;5048362;28;20264;-86
2024/02/03 14:07:58;;;;;;;7.30;4.93;;;;;;;;;;5056642;28;20775;-87
2024/02/03 14:10:24;;;;;;;6.13;5.53;;;;;;;;;;5056661;28;20216;-87
2024/02/03 14:12:53;;;;;;;5.20;4.70;;;;;;;;;;5039538;28;20191;-86
2024/02/03 14:15:20;;;;;;;5.95;4.75;;;;;;;;;;5038942;28;20170;-87
2024/02/03 14:17:46;;;;;;;7.05;5.43;;;;;;;;;;5038726;28;20185;-89
2024/02/03 14:20:13;;;;;;;5.57;5.07;;;;;;;;;;5056875;28;20197;-87
2024/02/03 14:22:39;;;;;;;6.10;5.40;;;;;;;;;;5039495;28;20635;-87
2024/02/03 14:25:05;;;;;;;5.22;4.72;;;;;;;;;;5044924;28;20638;-87
2024/02/03 14:27:34;;;;;;;6.18;5.57;;;;;;;;;;5076797;28;20676;-87
2024/02/03 14:30:01;;;;;;;6.57;5.38;;;;;;;;;;5059126;28;20184;-87
2024/02/03 14:32:27;;;;;;;5.55;5.05;;;;;;;;;;5058593;28;20195;-87